createdAt,value
2022-08-05T00:00:18.838Z,5.22
2022-08-05T00:02:50.974Z,5.50
2022-08-05T00:06:02.064Z,4.60
2022-08-05T00:08:30.848Z,5.43
2022-08-05T00:10:56.957Z,5.13
2022-08-05T00:13:38.763Z,5.07
2022-08-05T00:16:10.968Z,4.90
2022-08-05T00:18:44.387Z,4.90
2022-08-05T00:21:14.444Z,5.43
2022-08-05T00:23:46.452Z,4.88
2022-08-05T00:26:22.503Z,4.80
2022-08-05T00:28:50.954Z,4.75
2022-08-05T00:31:52.974Z,4.78
2022-08-05T00:34:55.635Z,5.10
2022-08-05T00:37:12.028Z,4.82
2022-08-05T00:39:44.431Z,4.75
2022-08-05T00:42:33.287Z,4.85
2022-08-05T00:45:01.147Z,4.88
2022-08-05T00:47:53.208Z,5.07
2022-08-05T00:50:17.912Z,5.03
2022-08-05T00:52:46.868Z,5.00
2022-08-05T00:55:14.959Z,5.28
2022-08-05T00:57:58.781Z,4.38
2022-08-05T01:00:28.010Z,5.15
2022-08-05T01:02:59.675Z,5.45
2022-08-05T01:05:28.386Z,5.07
2022-08-05T01:08:30.291Z,5.30
2022-08-05T01:10:52.167Z,4.85
2022-08-05T01:13:27.454Z,5.70
2022-08-05T01:16:26.269Z,5.15
2022-08-05T01:19:01.699Z,4.72
2022-08-05T01:21:53.694Z,4.55
2022-08-05T01:24:42.113Z,5.35
2022-08-05T01:27:27.877Z,5.45
2022-08-05T01:30:04.894Z,4.63
2022-08-05T01:32:44.744Z,5.10
2022-08-05T01:35:50.810Z,4.93
2022-08-05T01:38:07.968Z,5.18
2022-08-05T01:40:43.000Z,4.80
2022-08-05T01:43:22.271Z,4.80
2022-08-05T01:45:56.459Z,5.30
2022-08-05T01:48:26.118Z,5.38
2022-08-05T01:50:56.772Z,5.40
2022-08-05T01:53:55.188Z,5.50
2022-08-05T01:58:13.736Z,4.80
2022-08-05T01:59:07.698Z,4.82
2022-08-05T02:01:38.887Z,4.90
2022-08-05T02:04:10.193Z,5.07
2022-08-05T02:06:39.208Z,4.70
2022-08-05T02:09:08.296Z,4.90
2022-08-05T02:11:51.351Z,5.30
2022-08-05T02:14:25.561Z,5.10
2022-08-05T02:17:00.690Z,5.15
2022-08-05T02:19:34.674Z,5.43
2022-08-05T02:22:08.806Z,5.00
2022-08-05T02:24:40.015Z,5.15
2022-08-05T02:27:11.496Z,5.28
2022-08-05T02:29:59.674Z,5.07
2022-08-05T02:32:31.846Z,5.70
2022-08-05T02:35:13.640Z,5.13
2022-08-05T02:37:47.754Z,5.18
2022-08-05T02:40:23.113Z,4.97
2022-08-05T02:42:54.308Z,5.28
2022-08-05T02:45:24.198Z,5.10
2022-08-05T02:48:07.072Z,4.80
2022-08-05T02:50:43.982Z,4.68
2022-08-05T02:53:18.675Z,4.88
2022-08-05T02:55:54.730Z,5.18
2022-08-05T02:58:30.290Z,5.07
2022-08-05T03:01:02.223Z,5.15
2022-08-05T03:03:33.731Z,5.20
2022-08-05T03:06:54.923Z,5.22
2022-08-05T03:09:17.748Z,5.13
2022-08-05T03:11:55.787Z,4.63
2022-08-05T03:14:26.254Z,5.50
2022-08-05T03:16:54.172Z,5.13
2022-08-05T03:19:34.454Z,5.53
2022-08-05T03:22:05.046Z,5.20
2022-08-05T03:24:44.637Z,5.32
2022-08-05T03:27:15.913Z,5.15
2022-08-05T03:29:45.459Z,5.10
2022-08-05T03:32:32.018Z,5.40
2022-08-05T03:35:04.457Z,5.65
2022-08-05T03:37:46.281Z,4.85
2022-08-05T03:40:15.548Z,5.32
2022-08-05T03:42:52.975Z,5.07
2022-08-05T03:45:23.288Z,4.93
2022-08-05T03:47:51.788Z,4.95
2022-08-05T03:50:30.196Z,4.85
2022-08-05T03:55:06.866Z,5.40
2022-08-05T03:56:12.094Z,5.13
2022-08-05T03:58:47.921Z,5.10
2022-08-05T04:01:22.242Z,4.85
2022-08-05T04:04:09.060Z,4.90
2022-08-05T04:06:47.535Z,5.32
2022-08-05T04:09:20.251Z,5.35
2022-08-05T04:11:52.618Z,5.57
2022-08-05T04:14:30.147Z,5.15
2022-08-05T04:16:59.881Z,5.07
2022-08-05T04:19:29.208Z,5.22
2022-08-05T04:22:08.133Z,5.07
2022-08-05T04:24:39.007Z,5.13
2022-08-05T04:27:12.831Z,4.72
2022-08-05T04:29:40.925Z,5.32
2022-08-05T04:32:09.690Z,5.07
2022-08-05T04:34:43.110Z,5.28
2022-08-05T04:37:15.222Z,5.78
2022-08-05T04:39:44.598Z,5.07
2022-08-05T04:42:20.472Z,5.05
2022-08-05T04:44:53.388Z,4.70
2022-08-05T04:47:21.076Z,4.90
2022-08-05T04:50:01.461Z,5.03
2022-08-05T04:52:35.004Z,4.93
2022-08-05T04:55:03.737Z,4.40
2022-08-05T04:57:47.782Z,4.38
2022-08-05T05:00:16.726Z,4.90
2022-08-05T05:02:44.605Z,5.03
2022-08-05T05:05:16.939Z,4.60
2022-08-05T05:08:01.368Z,4.40
2022-08-05T05:10:30.317Z,4.18
2022-08-05T05:12:58.462Z,4.03
2022-08-05T05:15:57.512Z,4.70
2022-08-05T05:18:31.638Z,4.10
2022-08-05T05:21:02.163Z,4.60
2022-08-05T05:24:01.902Z,4.15
2022-08-05T05:26:28.407Z,4.13
2022-08-05T05:29:00.693Z,4.10
2022-08-05T05:31:35.958Z,3.70
2022-08-05T05:34:01.956Z,3.83
2022-08-05T05:36:31.088Z,4.13
2022-08-05T05:39:00.783Z,4.35
2022-08-05T05:41:40.825Z,4.13
2022-08-05T05:44:36.831Z,4.00
2022-08-05T05:46:58.246Z,4.05
2022-08-05T05:49:26.088Z,4.03
2022-08-05T05:51:53.826Z,4.22
2022-08-05T05:54:49.796Z,4.43
2022-08-05T05:57:13.843Z,4.32
2022-08-05T05:59:47.102Z,3.75
2022-08-05T06:02:16.611Z,4.50
2022-08-05T06:04:49.148Z,4.28
2022-08-05T06:07:17.255Z,4.18
2022-08-05T06:10:03.401Z,3.92
2022-08-05T06:12:32.481Z,4.10
2022-08-05T06:15:02.085Z,4.68
2022-08-05T06:17:52.720Z,4.35
2022-08-05T06:20:21.299Z,4.13
2022-08-05T06:22:49.250Z,4.07
2022-08-05T06:25:25.084Z,4.30
2022-08-05T06:28:12.854Z,3.88
2022-08-05T06:30:49.227Z,4.03
2022-08-05T06:33:19.241Z,5.10
2022-08-05T06:36:07.720Z,4.38
2022-08-05T06:38:36.297Z,4.15
2022-08-05T06:41:07.844Z,4.65
2022-08-05T06:43:59.048Z,4.10
2022-08-05T06:46:30.348Z,4.80
2022-08-05T06:48:59.323Z,3.90
2022-08-05T06:51:29.315Z,4.10
2022-08-05T06:53:58.346Z,4.20
2022-08-05T06:56:27.640Z,3.88
2022-08-05T06:58:55.419Z,4.93
2022-08-05T07:01:23.715Z,4.00
2022-08-05T07:03:59.893Z,3.97
2022-08-05T07:06:27.720Z,3.95
2022-08-05T07:08:59.034Z,3.85
2022-08-05T07:11:30.926Z,4.18
2022-08-05T07:14:29.704Z,4.05
2022-08-05T07:17:58.595Z,4.07
2022-08-05T07:20:32.508Z,4.28
2022-08-05T07:22:38.361Z,4.47
2022-08-05T07:25:21.976Z,4.47
2022-08-05T07:27:57.228Z,4.53
2022-08-05T07:30:32.681Z,5.30
2022-08-05T07:33:09.030Z,4.50
2022-08-05T07:36:03.458Z,4.45
2022-08-05T07:38:33.977Z,4.03
2022-08-05T07:42:08.331Z,4.10
2022-08-05T07:43:56.637Z,6.00
2022-08-05T07:46:26.712Z,4.65
2022-08-05T07:49:01.422Z,4.70
2022-08-05T07:51:37.359Z,4.35
2022-08-05T07:54:10.591Z,5.15
2022-08-05T07:57:01.841Z,4.70
2022-08-05T07:59:38.928Z,5.00
2022-08-05T08:02:15.335Z,4.57
2022-08-05T08:04:44.987Z,5.57
2022-08-05T08:07:13.124Z,5.28
2022-08-05T08:09:40.836Z,5.00
2022-08-05T08:12:19.202Z,5.10
2022-08-05T08:15:02.300Z,5.25
2022-08-05T08:17:30.762Z,5.03
2022-08-05T08:20:21.242Z,5.72
2022-08-05T08:22:52.244Z,5.03
2022-08-05T08:25:26.922Z,5.32
2022-08-05T08:28:18.012Z,6.22
2022-08-05T08:30:49.957Z,5.60
2022-08-05T08:33:19.200Z,4.75
2022-08-05T08:35:53.870Z,5.80
2022-08-05T08:38:37.886Z,5.93
2022-08-05T08:41:08.433Z,5.28
2022-08-05T08:45:19.143Z,5.47
2022-08-05T08:46:29.009Z,4.93
2022-08-05T08:49:07.738Z,5.70
2022-08-05T08:52:03.798Z,6.50
2022-08-05T08:54:36.555Z,6.75
2022-08-05T08:57:11.246Z,6.75
2022-08-05T08:59:41.903Z,6.57
2022-08-05T09:02:19.091Z,5.03
2022-08-05T09:05:16.270Z,5.75
2022-08-05T09:07:39.889Z,5.65
2022-08-05T09:10:27.070Z,5.72
2022-08-05T09:12:55.863Z,5.75
2022-08-05T09:15:45.785Z,6.00
2022-08-05T09:18:41.283Z,5.45
2022-08-05T09:21:11.608Z,5.93
2022-08-05T09:23:48.245Z,5.03
2022-08-05T09:26:20.699Z,5.10
2022-08-05T09:28:49.885Z,4.80
2022-08-05T09:31:23.330Z,5.13
2022-08-05T09:34:09.770Z,5.82
2022-08-05T09:36:45.700Z,5.00
2022-08-05T09:39:39.519Z,5.43
2022-08-05T09:42:20.173Z,5.55
2022-08-05T09:44:56.387Z,4.95
2022-08-05T09:47:29.688Z,4.90
2022-08-05T09:50:37.530Z,4.93
2022-08-05T09:53:06.105Z,5.15
2022-08-05T09:55:57.261Z,5.15
2022-08-05T09:58:25.665Z,5.07
2022-08-05T10:00:59.422Z,5.13
2022-08-05T10:03:56.915Z,5.32
2022-08-05T10:06:20.783Z,5.13
2022-08-05T10:08:53.927Z,5.30
2022-08-05T10:11:23.638Z,5.03
2022-08-05T10:13:58.996Z,5.18
2022-08-05T10:16:32.359Z,4.60
2022-08-05T10:19:04.311Z,4.97
2022-08-05T10:21:40.012Z,4.80
2022-08-05T10:24:10.875Z,5.35
2022-08-05T10:26:51.923Z,4.57
2022-08-05T10:29:24.169Z,4.60
2022-08-05T10:32:53.221Z,4.60
2022-08-05T10:35:01.105Z,4.10
2022-08-05T10:37:40.147Z,4.55
2022-08-05T10:40:27.851Z,4.43
2022-08-05T10:43:00.677Z,4.25
2022-08-05T10:45:39.999Z,4.38
2022-08-05T10:48:39.550Z,3.63
2022-08-05T10:51:28.724Z,4.00
2022-08-05T10:54:23.371Z,3.97
2022-08-05T10:56:49.339Z,4.03
2022-08-05T11:00:03.058Z,4.47
2022-08-05T11:02:34.621Z,4.35
2022-08-05T11:05:06.611Z,4.00
2022-08-05T11:08:02.669Z,3.97
2022-08-05T11:10:27.555Z,4.18
2022-08-05T11:12:57.026Z,4.32
2022-08-05T11:15:59.455Z,4.03
2022-08-05T11:18:34.343Z,4.47
2022-08-05T11:21:06.281Z,4.20
2022-08-05T11:24:04.678Z,4.35
2022-08-05T11:26:33.896Z,4.53
2022-08-05T11:29:12.756Z,4.00
2022-08-05T11:31:57.743Z,4.10
2022-08-05T11:34:51.969Z,3.65
2022-08-05T11:38:29.279Z,3.92
2022-08-05T11:41:15.512Z,4.03
2022-08-05T11:44:06.251Z,4.00
2022-08-05T11:46:37.768Z,3.92
2022-08-05T11:49:25.366Z,3.63
2022-08-05T11:51:54.277Z,3.65
2022-08-05T11:54:32.623Z,3.90
2022-08-05T11:57:08.778Z,4.28
2022-08-05T11:59:52.984Z,3.90
2022-08-05T12:02:31.167Z,3.63
2022-08-05T12:05:01.334Z,4.00
2022-08-05T12:08:03.249Z,4.22
2022-08-05T12:10:43.336Z,3.88
2022-08-05T12:13:16.844Z,4.35
2022-08-05T12:15:49.666Z,4.03
2022-08-05T12:18:20.701Z,4.10
2022-08-05T12:20:51.897Z,4.10
2022-08-05T12:23:19.554Z,3.67
2022-08-05T12:25:51.818Z,3.67
2022-08-05T12:28:37.003Z,4.18
2022-08-05T12:31:07.241Z,4.03
2022-08-05T12:33:36.383Z,3.67
2022-08-05T12:36:09.018Z,3.60
2022-08-05T12:38:39.712Z,3.90
2022-08-05T12:41:13.223Z,3.83
2022-08-05T12:43:58.453Z,3.63
2022-08-05T12:46:31.410Z,3.63
2022-08-05T12:49:13.238Z,3.90
2022-08-05T12:52:14.006Z,4.50
2022-08-05T12:54:34.544Z,4.03
2022-08-05T12:57:03.963Z,4.22
2022-08-05T13:00:08.502Z,3.88
2022-08-05T13:02:40.112Z,3.85
2022-08-05T13:05:12.655Z,4.00
2022-08-05T13:07:59.711Z,3.70
2022-08-05T13:10:28.825Z,3.83
2022-08-05T13:12:58.701Z,3.95
2022-08-05T13:15:41.226Z,3.72
2022-08-05T13:18:11.102Z,3.88
2022-08-05T13:20:46.670Z,4.35
2022-08-05T13:23:14.340Z,3.97
2022-08-05T13:25:52.790Z,4.25
2022-08-05T13:28:26.800Z,3.90
2022-08-05T13:30:54.539Z,3.72
2022-08-05T13:34:24.354Z,3.80
2022-08-05T13:36:14.430Z,4.18
2022-08-05T13:38:43.208Z,3.60
2022-08-05T13:41:11.495Z,3.75
2022-08-05T13:43:45.446Z,3.78
2022-08-05T13:46:37.726Z,3.83
2022-08-05T13:49:11.609Z,4.70
2022-08-05T13:51:41.405Z,4.07
2022-08-05T13:54:12.698Z,3.88
2022-08-05T13:56:45.075Z,4.38
2022-08-05T13:59:21.071Z,3.63
2022-08-05T14:01:57.892Z,3.78
2022-08-05T14:04:49.844Z,4.07
2022-08-05T14:07:56.392Z,3.67
2022-08-05T14:10:09.690Z,4.10
2022-08-05T14:12:37.660Z,3.70
2022-08-05T14:16:06.928Z,3.80
2022-08-05T14:17:59.396Z,3.38
2022-08-05T14:20:29.610Z,4.65
2022-08-05T14:22:57.789Z,3.25
2022-08-05T14:25:28.219Z,3.90
2022-08-05T14:27:56.443Z,3.60
2022-08-05T14:30:28.191Z,3.60
2022-08-05T14:32:56.629Z,3.58
2022-08-05T14:35:37.147Z,3.83
2022-08-05T14:38:32.892Z,3.53
2022-08-05T14:41:05.682Z,3.78
2022-08-05T14:43:58.934Z,3.72
2022-08-05T14:46:22.029Z,3.55
2022-08-05T14:48:50.239Z,3.90
2022-08-05T14:51:18.108Z,3.35
2022-08-05T14:54:00.533Z,3.83
2022-08-05T14:56:38.153Z,3.38
2022-08-05T14:59:12.762Z,3.58
2022-08-05T15:01:47.946Z,3.95
2022-08-05T15:04:17.306Z,3.80
2022-08-05T15:06:49.414Z,3.70
2022-08-05T15:09:52.533Z,3.72
2022-08-05T15:12:08.973Z,3.60
2022-08-05T15:14:48.472Z,3.50
2022-08-05T15:17:45.808Z,3.80
2022-08-05T15:20:07.570Z,3.30
2022-08-05T15:22:37.747Z,3.88
2022-08-05T15:25:11.940Z,3.80
2022-08-05T15:27:43.072Z,3.63
2022-08-05T15:30:20.402Z,3.55
2022-08-05T15:32:50.190Z,3.85
2022-08-05T15:35:17.899Z,3.38
2022-08-05T15:38:09.200Z,3.65
2022-08-05T15:41:00.838Z,3.40
2022-08-05T15:43:26.451Z,3.50
2022-08-05T15:46:00.088Z,3.65
2022-08-05T15:48:29.727Z,3.40
2022-08-05T15:50:57.810Z,3.75
2022-08-05T15:53:38.250Z,3.45
2022-08-05T15:56:19.868Z,3.90
2022-08-05T15:58:48.192Z,4.28
2022-08-05T16:01:18.040Z,3.67
2022-08-05T16:03:48.376Z,3.70
2022-08-05T16:06:20.006Z,3.83
2022-08-05T16:08:50.337Z,3.67
2022-08-05T16:11:42.900Z,3.65
2022-08-05T16:14:10.489Z,3.45
2022-08-05T16:16:46.065Z,3.63
2022-08-05T16:19:18.990Z,3.60
2022-08-05T16:22:03.411Z,3.30
2022-08-05T16:24:40.703Z,3.70
2022-08-05T16:27:32.356Z,4.10
2022-08-05T16:30:23.238Z,3.90
2022-08-05T16:32:53.763Z,4.50
2022-08-05T16:35:27.578Z,3.90
2022-08-05T16:38:03.554Z,5.05
2022-08-05T16:40:51.798Z,3.97
2022-08-05T16:43:25.665Z,4.90
2022-08-05T16:46:07.098Z,4.53
2022-08-05T16:48:42.856Z,4.50
2022-08-05T16:51:11.170Z,4.60
2022-08-05T16:54:02.922Z,4.75
2022-08-05T16:56:29.453Z,4.68
2022-08-05T16:59:00.858Z,4.50
2022-08-05T17:01:53.235Z,4.68
2022-08-05T17:04:19.509Z,4.97
2022-08-05T17:06:53.063Z,4.70
2022-08-05T17:09:21.560Z,4.40
2022-08-05T17:11:56.097Z,4.35
2022-08-05T17:14:37.422Z,4.32
2022-08-05T17:17:09.312Z,4.32
2022-08-05T17:19:45.453Z,4.30
2022-08-05T17:22:24.632Z,4.25
2022-08-05T17:24:56.990Z,4.20
2022-08-05T17:27:27.509Z,4.68
2022-08-05T17:30:04.686Z,4.30
2022-08-05T17:32:39.983Z,4.85
2022-08-05T17:35:10.806Z,4.53
2022-08-05T17:37:45.460Z,4.90
2022-08-05T17:40:18.530Z,4.78
2022-08-05T17:42:52.158Z,4.47
2022-08-05T17:45:25.058Z,4.90
2022-08-05T17:47:57.340Z,4.68
2022-08-05T17:50:28.545Z,5.00
2022-08-05T17:53:02.445Z,4.82
2022-08-05T17:55:38.125Z,5.22
2022-08-05T17:58:13.329Z,4.43
2022-08-05T18:00:47.789Z,5.20
2022-08-05T18:03:56.356Z,4.57
2022-08-05T18:06:11.233Z,5.00
2022-08-05T18:08:45.036Z,4.63
2022-08-05T18:11:24.712Z,5.82
2022-08-05T18:14:04.336Z,5.60
2022-08-05T18:16:43.684Z,5.45
2022-08-05T18:19:22.491Z,5.45
2022-08-05T18:22:07.160Z,5.10
2022-08-05T18:24:37.811Z,5.45
2022-08-05T18:27:12.666Z,5.25
2022-08-05T18:29:51.901Z,5.10
2022-08-05T18:32:28.441Z,5.10
2022-08-05T18:34:57.394Z,4.80
2022-08-05T18:37:33.492Z,5.03
2022-08-05T18:41:50.555Z,5.40
2022-08-05T18:42:50.342Z,5.18
2022-08-05T18:45:19.992Z,5.50
2022-08-05T18:47:56.394Z,5.55
2022-08-05T18:50:46.873Z,5.68
2022-08-05T18:53:22.728Z,5.53
2022-08-05T18:55:53.160Z,6.45
2022-08-05T18:58:27.165Z,6.75
2022-08-05T19:00:57.066Z,6.00
2022-08-05T19:03:55.750Z,6.50
2022-08-05T19:06:21.895Z,6.05
2022-08-05T19:08:51.128Z,5.65
2022-08-05T19:11:27.905Z,5.72
2022-08-05T19:14:01.124Z,5.40
2022-08-05T19:16:47.091Z,6.10
2022-08-05T19:19:21.021Z,4.63
2022-08-05T19:21:51.569Z,3.90
2022-08-05T19:24:34.863Z,3.08
2022-08-05T19:27:03.962Z,3.53
2022-08-05T19:29:35.835Z,3.88
2022-08-05T19:32:08.487Z,3.42
2022-08-05T19:34:37.892Z,3.08
2022-08-05T19:37:06.985Z,2.70
2022-08-05T19:39:45.931Z,2.40
2022-08-05T19:42:19.290Z,3.33
2022-08-05T19:45:06.044Z,3.50
2022-08-05T19:47:34.660Z,3.40
2022-08-05T19:50:11.904Z,3.60
2022-08-05T19:52:40.817Z,3.80
2022-08-05T19:56:14.202Z,3.90
2022-08-05T19:58:07.134Z,4.70
2022-08-05T20:00:46.055Z,4.70
2022-08-05T20:03:14.140Z,4.47
2022-08-05T20:05:51.478Z,5.20
2022-08-05T20:08:20.111Z,5.32
2022-08-05T20:10:49.325Z,5.28
2022-08-05T20:13:18.267Z,5.20
2022-08-05T20:15:58.152Z,4.70
2022-08-05T20:18:33.927Z,4.70
2022-08-05T20:21:06.519Z,6.28
2022-08-05T20:23:39.960Z,5.63
2022-08-05T20:26:19.955Z,5.50
2022-08-05T20:28:48.600Z,5.07
2022-08-05T20:31:16.916Z,4.97
2022-08-05T20:33:45.331Z,4.88
2022-08-05T20:36:16.477Z,4.40
2022-08-05T20:38:54.401Z,4.93
2022-08-05T20:41:27.190Z,4.50
2022-08-05T20:44:17.888Z,4.00
2022-08-05T20:46:47.735Z,5.43
2022-08-05T20:49:24.037Z,5.40
2022-08-05T20:51:54.140Z,4.20
2022-08-05T20:54:22.071Z,5.38
2022-08-05T20:56:49.883Z,4.22
2022-08-05T20:59:26.182Z,3.80
2022-08-05T21:01:57.128Z,3.85
2022-08-05T21:04:26.972Z,3.78
2022-08-05T21:06:56.738Z,3.53
2022-08-05T21:09:25.869Z,4.10
2022-08-05T21:12:09.901Z,3.85
2022-08-05T21:14:39.809Z,3.63
2022-08-05T21:17:07.508Z,3.50
2022-08-05T21:19:46.711Z,3.42
2022-08-05T21:22:18.701Z,3.20
2022-08-05T21:24:51.409Z,3.20
2022-08-05T21:27:20.622Z,3.00
2022-08-05T21:29:54.182Z,3.15
2022-08-05T21:32:24.537Z,3.00
2022-08-05T21:35:06.759Z,3.05
2022-08-05T21:37:41.171Z,3.30
2022-08-05T21:40:13.695Z,3.63
2022-08-05T21:42:44.647Z,3.65
2022-08-05T21:45:17.611Z,3.92
2022-08-05T21:48:06.589Z,3.85
2022-08-05T21:50:37.314Z,4.18
2022-08-05T21:53:08.455Z,4.07
2022-08-05T21:56:05.055Z,2.88
2022-08-05T21:58:32.701Z,2.80
2022-08-05T22:01:00.758Z,2.67
2022-08-05T22:03:48.596Z,2.70
2022-08-05T22:06:22.557Z,2.70
2022-08-05T22:08:52.691Z,2.50
2022-08-05T22:11:34.422Z,2.83
2022-08-05T22:14:05.986Z,2.65
2022-08-05T22:16:52.568Z,3.00
2022-08-05T22:20:01.088Z,3.10
2022-08-05T22:22:12.429Z,3.10
2022-08-05T22:25:01.738Z,2.75
2022-08-05T22:28:10.722Z,3.72
2022-08-05T22:30:35.871Z,3.65
2022-08-05T22:33:15.452Z,3.72
2022-08-05T22:35:48.641Z,3.40
2022-08-05T22:38:18.902Z,4.30
2022-08-05T22:40:49.351Z,4.00
2022-08-05T22:43:37.432Z,4.38
2022-08-05T22:46:13.192Z,3.85
2022-08-05T22:48:42.164Z,3.65
2022-08-05T22:51:15.895Z,3.90
2022-08-05T22:53:50.347Z,3.90
2022-08-05T22:56:29.745Z,3.75
2022-08-05T22:59:00.058Z,3.85
2022-08-05T23:02:04.455Z,3.55
2022-08-05T23:04:19.447Z,4.10
2022-08-05T23:06:47.733Z,3.90
2022-08-05T23:09:27.795Z,4.40
2022-08-05T23:12:05.765Z,4.55
2022-08-05T23:14:33.802Z,3.97
2022-08-05T23:17:24.141Z,4.15
2022-08-05T23:19:56.077Z,3.65
2022-08-05T23:22:27.214Z,3.70
2022-08-05T23:24:56.002Z,3.40
2022-08-05T23:27:31.194Z,3.88
2022-08-05T23:30:00.860Z,3.92
2022-08-05T23:32:28.890Z,2.75
2022-08-05T23:34:56.914Z,2.63
2022-08-05T23:37:26.601Z,2.85
2022-08-05T23:40:02.043Z,2.63
2022-08-05T23:42:37.860Z,2.50
2022-08-05T23:45:13.921Z,2.50
2022-08-05T23:47:47.709Z,2.28
2022-08-05T23:50:17.089Z,2.33
2022-08-05T23:52:50.135Z,2.15
2022-08-05T23:55:19.688Z,1.77
2022-08-05T23:57:51.212Z,2.17
